sensor_id;sensor_type;location;lat;lon;timestamp;temperature;humidity
27978;DHT22;15314;49.248;6.968;2023-07-16T00:00:58;17.90;99.90
27978;DHT22;15314;49.248;6.968;2023-07-16T00:01:59;17.90;99.90
27978;DHT22;15314;49.248;6.968;2023-07-16T00:03:00;17.90;99.90
27978;DHT22;15314;49.248;6.968;2023-07-16T00:04:00;17.90;99.90
27978;DHT22;15314;49.248;6.968;2023-07-16T00:05:01;17.90;99.90
27978;DHT22;15314;49.248;6.968;2023-07-16T00:06:02;17.90;99.90
27978;DHT22;15314;49.248;6.968;2023-07-16T00:07:02;17.90;99.90
27978;DHT22;15314;49.248;6.968;2023-07-16T00:08:03;17.90;99.90
27978;DHT22;15314;49.248;6.968;2023-07-16T00:09:04;17.90;99.90
27978;DHT22;15314;49.248;6.968;2023-07-16T00:10:05;17.80;99.90
27978;DHT22;15314;49.248;6.968;2023-07-16T00:11:05;17.80;99.90
27978;DHT22;15314;49.248;6.968;2023-07-16T00:12:06;17.70;99.90
27978;DHT22;15314;49.248;6.968;2023-07-16T00:13:07;17.80;99.90
27978;DHT22;15314;49.248;6.968;2023-07-16T00:14:10;17.80;99.90
27978;DHT22;15314;49.248;6.968;2023-07-16T00:15:11;17.80;99.90
27978;DHT22;15314;49.248;6.968;2023-07-16T00:16:12;17.80;99.90
27978;DHT22;15314;49.248;6.968;2023-07-16T00:17:13;17.80;99.90
27978;DHT22;15314;49.248;6.968;2023-07-16T00:18:14;17.80;99.90
27978;DHT22;15314;49.248;6.968;2023-07-16T00:19:14;17.80;99.90
27978;DHT22;15314;49.248;6.968;2023-07-16T00:20:15;17.70;99.90
27978;DHT22;15314;49.248;6.968;2023-07-16T00:21:16;17.70;99.90
27978;DHT22;15314;49.248;6.968;2023-07-16T00:22:16;17.70;99.90
27978;DHT22;15314;49.248;6.968;2023-07-16T00:23:17;17.60;99.90
27978;DHT22;15314;49.248;6.968;2023-07-16T00:24:18;17.60;99.90
27978;DHT22;15314;49.248;6.968;2023-07-16T00:25:18;17.60;99.90
27978;DHT22;15314;49.248;6.968;2023-07-16T00:26:19;17.60;99.90
27978;DHT22;15314;49.248;6.968;2023-07-16T00:27:20;17.60;99.90
27978;DHT22;15314;49.248;6.968;2023-07-16T00:28:20;17.60;99.90
27978;DHT22;15314;49.248;6.968;2023-07-16T00:29:21;17.60;99.90
27978;DHT22;15314;49.248;6.968;2023-07-16T00:30:22;17.50;99.90
27978;DHT22;15314;49.248;6.968;2023-07-16T00:31:22;17.50;99.90
27978;DHT22;15314;49.248;6.968;2023-07-16T00:32:23;17.40;99.90
27978;DHT22;15314;49.248;6.968;2023-07-16T00:33:24;17.40;99.90
27978;DHT22;15314;49.248;6.968;2023-07-16T00:34:25;17.50;99.90
27978;DHT22;15314;49.248;6.968;2023-07-16T00:35:25;17.40;99.90
27978;DHT22;15314;49.248;6.968;2023-07-16T00:36:26;17.40;99.90
27978;DHT22;15314;49.248;6.968;2023-07-16T00:37:27;17.40;99.90
27978;DHT22;15314;49.248;6.968;2023-07-16T00:38:27;17.40;99.90
27978;DHT22;15314;49.248;6.968;2023-07-16T00:39:29;17.40;99.90
27978;DHT22;15314;49.248;6.968;2023-07-16T00:40:30;17.40;99.90
27978;DHT22;15314;49.248;6.968;2023-07-16T00:41:30;17.40;99.90
27978;DHT22;15314;49.248;6.968;2023-07-16T00:42:31;17.40;99.90
27978;DHT22;15314;49.248;6.968;2023-07-16T00:43:32;17.30;99.90
27978;DHT22;15314;49.248;6.968;2023-07-16T00:44:32;17.30;99.90
27978;DHT22;15314;49.248;6.968;2023-07-16T00:45:33;17.30;99.90
27978;DHT22;15314;49.248;6.968;2023-07-16T00:46:34;17.20;99.90
27978;DHT22;15314;49.248;6.968;2023-07-16T00:47:34;17.20;99.90
27978;DHT22;15314;49.248;6.968;2023-07-16T00:48:35;17.20;99.90
27978;DHT22;15314;49.248;6.968;2023-07-16T00:49:37;17.20;99.90
27978;DHT22;15314;49.248;6.968;2023-07-16T00:50:40;17.20;99.90
27978;DHT22;15314;49.248;6.968;2023-07-16T00:51:42;17.20;99.90
27978;DHT22;15314;49.248;6.968;2023-07-16T00:52:43;17.10;99.90
27978;DHT22;15314;49.248;6.968;2023-07-16T00:53:44;17.20;99.90
27978;DHT22;15314;49.248;6.968;2023-07-16T00:54:45;17.10;99.90
27978;DHT22;15314;49.248;6.968;2023-07-16T00:55:46;17.10;99.90
27978;DHT22;15314;49.248;6.968;2023-07-16T00:56:47;17.10;99.90
27978;DHT22;15314;49.248;6.968;2023-07-16T00:57:48;17.10;99.90
27978;DHT22;15314;49.248;6.968;2023-07-16T00:58:48;17.10;99.90
27978;DHT22;15314;49.248;6.968;2023-07-16T00:59:49;17.10;99.90
27978;DHT22;15314;49.248;6.968;2023-07-16T01:00:50;17.00;99.90
27978;DHT22;15314;49.248;6.968;2023-07-16T01:01:50;17.00;99.90
27978;DHT22;15314;49.248;6.968;2023-07-16T01:02:51;17.00;99.90
27978;DHT22;15314;49.248;6.968;2023-07-16T01:03:52;17.00;99.90
27978;DHT22;15314;49.248;6.968;2023-07-16T01:04:52;17.00;99.90
27978;DHT22;15314;49.248;6.968;2023-07-16T01:06:58;17.00;99.90
27978;DHT22;15314;49.248;6.968;2023-07-16T01:08:04;17.00;99.90
27978;DHT22;15314;49.248;6.968;2023-07-16T01:09:17;16.90;99.90
27978;DHT22;15314;49.248;6.968;2023-07-16T01:10:18;17.00;99.90
27978;DHT22;15314;49.248;6.968;2023-07-16T01:11:19;16.90;99.90
27978;DHT22;15314;49.248;6.968;2023-07-16T01:12:22;16.90;99.90
27978;DHT22;15314;49.248;6.968;2023-07-16T01:13:23;16.90;99.90
27978;DHT22;15314;49.248;6.968;2023-07-16T01:14:24;16.90;99.90
27978;DHT22;15314;49.248;6.968;2023-07-16T01:15:25;16.90;99.90
27978;DHT22;15314;49.248;6.968;2023-07-16T01:16:26;17.00;99.90
27978;DHT22;15314;49.248;6.968;2023-07-16T01:17:27;16.90;99.90
27978;DHT22;15314;49.248;6.968;2023-07-16T01:18:28;16.90;99.90
27978;DHT22;15314;49.248;6.968;2023-07-16T01:19:29;16.90;99.90
27978;DHT22;15314;49.248;6.968;2023-07-16T01:20:29;16.90;99.90
27978;DHT22;15314;49.248;6.968;2023-07-16T01:27:23;17.00;99.90
27978;DHT22;15314;49.248;6.968;2023-07-16T01:29:48;16.90;99.90
27978;DHT22;15314;49.248;6.968;2023-07-16T01:30:52;16.90;99.90
27978;DHT22;15314;49.248;6.968;2023-07-16T01:31:55;16.90;99.90
27978;DHT22;15314;49.248;6.968;2023-07-16T01:32:57;16.90;99.90
27978;DHT22;15314;49.248;6.968;2023-07-16T01:33:58;16.90;99.90
27978;DHT22;15314;49.248;6.968;2023-07-16T01:35:00;16.80;99.90
27978;DHT22;15314;49.248;6.968;2023-07-16T01:36:01;16.90;99.90
27978;DHT22;15314;49.248;6.968;2023-07-16T01:37:03;16.80;99.90
27978;DHT22;15314;49.248;6.968;2023-07-16T01:38:04;16.80;99.90
27978;DHT22;15314;49.248;6.968;2023-07-16T01:39:05;16.80;99.90
27978;DHT22;15314;49.248;6.968;2023-07-16T01:40:07;16.90;99.90
27978;DHT22;15314;49.248;6.968;2023-07-16T01:41:09;16.80;99.90
27978;DHT22;15314;49.248;6.968;2023-07-16T01:42:10;16.80;99.90
27978;DHT22;15314;49.248;6.968;2023-07-16T01:43:13;16.80;99.90
27978;DHT22;15314;49.248;6.968;2023-07-16T01:44:13;16.80;99.90
27978;DHT22;15314;49.248;6.968;2023-07-16T01:45:14;16.80;99.90
27978;DHT22;15314;49.248;6.968;2023-07-16T01:46:15;16.80;99.90
27978;DHT22;15314;49.248;6.968;2023-07-16T01:47:24;16.80;99.90
27978;DHT22;15314;49.248;6.968;2023-07-16T01:49:32;16.80;99.90
27978;DHT22;15314;49.248;6.968;2023-07-16T01:50:32;16.70;99.90
27978;DHT22;15314;49.248;6.968;2023-07-16T01:51:33;16.70;99.90
27978;DHT22;15314;49.248;6.968;2023-07-16T01:52:34;16.70;99.90
27978;DHT22;15314;49.248;6.968;2023-07-16T01:53:35;16.70;99.90
27978;DHT22;15314;49.248;6.968;2023-07-16T01:54:36;16.60;99.90
27978;DHT22;15314;49.248;6.968;2023-07-16T01:55:36;16.60;99.90
27978;DHT22;15314;49.248;6.968;2023-07-16T01:56:37;16.60;99.90
27978;DHT22;15314;49.248;6.968;2023-07-16T01:57:38;16.60;99.90
27978;DHT22;15314;49.248;6.968;2023-07-16T01:58:38;16.50;99.90
27978;DHT22;15314;49.248;6.968;2023-07-16T01:59:39;16.50;99.90
27978;DHT22;15314;49.248;6.968;2023-07-16T02:00:40;16.50;99.90
27978;DHT22;15314;49.248;6.968;2023-07-16T02:01:41;16.50;99.90
27978;DHT22;15314;49.248;6.968;2023-07-16T02:02:41;16.50;99.90
27978;DHT22;15314;49.248;6.968;2023-07-16T02:03:42;16.60;99.90
27978;DHT22;15314;49.248;6.968;2023-07-16T02:04:43;16.50;99.90
27978;DHT22;15314;49.248;6.968;2023-07-16T02:05:43;16.60;99.90
27978;DHT22;15314;49.248;6.968;2023-07-16T02:06:44;16.50;99.90
27978;DHT22;15314;49.248;6.968;2023-07-16T02:07:45;16.60;99.90
27978;DHT22;15314;49.248;6.968;2023-07-16T02:08:45;16.60;99.90
27978;DHT22;15314;49.248;6.968;2023-07-16T02:09:46;16.60;99.90
27978;DHT22;15314;49.248;6.968;2023-07-16T02:10:48;16.60;99.90
27978;DHT22;15314;49.248;6.968;2023-07-16T02:11:48;16.50;99.90
27978;DHT22;15314;49.248;6.968;2023-07-16T02:12:49;16.50;99.90
27978;DHT22;15314;49.248;6.968;2023-07-16T02:13:51;16.50;99.90
27978;DHT22;15314;49.248;6.968;2023-07-16T02:14:51;16.50;99.90
27978;DHT22;15314;49.248;6.968;2023-07-16T02:15:52;16.50;99.90
27978;DHT22;15314;49.248;6.968;2023-07-16T02:16:52;16.50;99.90
27978;DHT22;15314;49.248;6.968;2023-07-16T02:17:53;16.50;99.90
27978;DHT22;15314;49.248;6.968;2023-07-16T02:18:54;16.50;99.90
27978;DHT22;15314;49.248;6.968;2023-07-16T02:19:55;16.40;99.90
27978;DHT22;15314;49.248;6.968;2023-07-16T02:20:55;16.40;99.90
27978;DHT22;15314;49.248;6.968;2023-07-16T02:21:56;16.40;99.90
27978;DHT22;15314;49.248;6.968;2023-07-16T02:22:57;16.40;99.90
27978;DHT22;15314;49.248;6.968;2023-07-16T02:23:58;16.40;99.90
27978;DHT22;15314;49.248;6.968;2023-07-16T02:24:58;16.40;99.90
27978;DHT22;15314;49.248;6.968;2023-07-16T02:25:59;16.40;99.90
27978;DHT22;15314;49.248;6.968;2023-07-16T02:26:59;16.40;99.90
27978;DHT22;15314;49.248;6.968;2023-07-16T02:28:00;16.40;99.90
27978;DHT22;15314;49.248;6.968;2023-07-16T02:29:01;16.40;99.90
27978;DHT22;15314;49.248;6.968;2023-07-16T02:30:02;16.40;99.90
27978;DHT22;15314;49.248;6.968;2023-07-16T02:31:03;16.30;99.90
27978;DHT22;15314;49.248;6.968;2023-07-16T02:32:04;16.40;99.90
27978;DHT22;15314;49.248;6.968;2023-07-16T02:33:05;16.30;99.90
27978;DHT22;15314;49.248;6.968;2023-07-16T02:34:05;16.30;99.90
27978;DHT22;15314;49.248;6.968;2023-07-16T02:35:07;16.40;99.90
27978;DHT22;15314;49.248;6.968;2023-07-16T02:36:08;16.30;99.90
27978;DHT22;15314;49.248;6.968;2023-07-16T02:37:09;16.20;99.90
27978;DHT22;15314;49.248;6.968;2023-07-16T02:38:10;16.20;99.90
27978;DHT22;15314;49.248;6.968;2023-07-16T02:39:10;16.20;99.90
27978;DHT22;15314;49.248;6.968;2023-07-16T02:40:11;16.20;99.90
27978;DHT22;15314;49.248;6.968;2023-07-16T02:41:12;16.20;99.90
27978;DHT22;15314;49.248;6.968;2023-07-16T02:42:12;16.20;99.90
27978;DHT22;15314;49.248;6.968;2023-07-16T02:43:14;16.10;99.90
27978;DHT22;15314;49.248;6.968;2023-07-16T02:44:14;16.10;99.90
27978;DHT22;15314;49.248;6.968;2023-07-16T02:45:15;16.10;99.90
27978;DHT22;15314;49.248;6.968;2023-07-16T02:46:15;16.10;99.90
27978;DHT22;15314;49.248;6.968;2023-07-16T02:47:16;16.10;99.90
27978;DHT22;15314;49.248;6.968;2023-07-16T02:48:17;16.10;99.90
27978;DHT22;15314;49.248;6.968;2023-07-16T02:49:17;16.10;99.90
27978;DHT22;15314;49.248;6.968;2023-07-16T02:50:18;16.00;99.90
27978;DHT22;15314;49.248;6.968;2023-07-16T02:51:19;16.10;99.90
27978;DHT22;15314;49.248;6.968;2023-07-16T02:52:19;16.10;99.90
27978;DHT22;15314;49.248;6.968;2023-07-16T02:53:20;16.00;99.90
27978;DHT22;15314;49.248;6.968;2023-07-16T02:54:20;16.00;99.90
27978;DHT22;15314;49.248;6.968;2023-07-16T02:55:21;16.00;99.90
27978;DHT22;15314;49.248;6.968;2023-07-16T02:56:22;16.00;99.90
27978;DHT22;15314;49.248;6.968;2023-07-16T02:57:22;16.00;99.90
27978;DHT22;15314;49.248;6.968;2023-07-16T02:58:23;16.00;99.90
27978;DHT22;15314;49.248;6.968;2023-07-16T02:59:24;16.10;99.90
27978;DHT22;15314;49.248;6.968;2023-07-16T03:00:24;16.00;99.90
27978;DHT22;15314;49.248;6.968;2023-07-16T03:01:25;16.00;99.90
27978;DHT22;15314;49.248;6.968;2023-07-16T03:02:26;16.00;99.90
27978;DHT22;15314;49.248;6.968;2023-07-16T03:03:27;16.00;99.90
27978;DHT22;15314;49.248;6.968;2023-07-16T03:04:27;16.00;99.90
27978;DHT22;15314;49.248;6.968;2023-07-16T03:05:28;15.90;99.90
27978;DHT22;15314;49.248;6.968;2023-07-16T03:06:29;15.90;99.90
27978;DHT22;15314;49.248;6.968;2023-07-16T03:07:29;16.00;99.90
27978;DHT22;15314;49.248;6.968;2023-07-16T03:08:30;16.00;99.90
27978;DHT22;15314;49.248;6.968;2023-07-16T03:09:31;15.90;99.90
27978;DHT22;15314;49.248;6.968;2023-07-16T03:10:32;16.00;99.90
27978;DHT22;15314;49.248;6.968;2023-07-16T03:11:33;15.90;99.90
27978;DHT22;15314;49.248;6.968;2023-07-16T03:12:33;15.90;99.90
27978;DHT22;15314;49.248;6.968;2023-07-16T03:13:34;15.90;99.90
27978;DHT22;15314;49.248;6.968;2023-07-16T03:14:35;15.90;99.90
27978;DHT22;15314;49.248;6.968;2023-07-16T03:15:36;15.90;99.90
27978;DHT22;15314;49.248;6.968;2023-07-16T03:16:36;15.90;99.90
27978;DHT22;15314;49.248;6.968;2023-07-16T03:17:37;15.90;99.90
27978;DHT22;15314;49.248;6.968;2023-07-16T03:18:38;15.90;99.90
27978;DHT22;15314;49.248;6.968;2023-07-16T03:19:38;15.90;99.90
27978;DHT22;15314;49.248;6.968;2023-07-16T03:20:39;15.90;99.90
27978;DHT22;15314;49.248;6.968;2023-07-16T03:21:39;15.90;99.90
27978;DHT22;15314;49.248;6.968;2023-07-16T03:22:40;15.80;99.90
27978;DHT22;15314;49.248;6.968;2023-07-16T03:23:41;15.90;99.90
27978;DHT22;15314;49.248;6.968;2023-07-16T03:24:41;15.80;99.90
27978;DHT22;15314;49.248;6.968;2023-07-16T03:25:42;15.80;99.90
27978;DHT22;15314;49.248;6.968;2023-07-16T03:26:43;15.80;99.90
27978;DHT22;15314;49.248;6.968;2023-07-16T03:27:43;15.80;99.90
27978;DHT22;15314;49.248;6.968;2023-07-16T03:28:44;15.90;99.90
27978;DHT22;15314;49.248;6.968;2023-07-16T03:29:45;15.80;99.90
27978;DHT22;15314;49.248;6.968;2023-07-16T03:30:47;15.80;99.90
27978;DHT22;15314;49.248;6.968;2023-07-16T03:31:48;15.80;99.90
27978;DHT22;15314;49.248;6.968;2023-07-16T03:32:49;15.80;99.90
27978;DHT22;15314;49.248;6.968;2023-07-16T03:33:49;15.80;99.90
27978;DHT22;15314;49.248;6.968;2023-07-16T03:34:50;15.80;99.90
27978;DHT22;15314;49.248;6.968;2023-07-16T03:35:51;15.80;99.90
27978;DHT22;15314;49.248;6.968;2023-07-16T03:36:51;15.80;99.90
27978;DHT22;15314;49.248;6.968;2023-07-16T03:37:52;15.80;99.90
27978;DHT22;15314;49.248;6.968;2023-07-16T03:38:53;15.70;99.90
27978;DHT22;15314;49.248;6.968;2023-07-16T03:39:54;15.80;99.90
27978;DHT22;15314;49.248;6.968;2023-07-16T03:40:54;15.70;99.90
27978;DHT22;15314;49.248;6.968;2023-07-16T03:41:55;15.70;99.90
27978;DHT22;15314;49.248;6.968;2023-07-16T03:42:56;15.70;99.90
27978;DHT22;15314;49.248;6.968;2023-07-16T03:43:56;15.70;99.90
27978;DHT22;15314;49.248;6.968;2023-07-16T03:44:57;15.70;99.90
27978;DHT22;15314;49.248;6.968;2023-07-16T03:45:58;15.70;99.90
27978;DHT22;15314;49.248;6.968;2023-07-16T03:46:58;15.70;99.90
27978;DHT22;15314;49.248;6.968;2023-07-16T03:47:59;15.70;99.90
27978;DHT22;15314;49.248;6.968;2023-07-16T03:49:00;15.70;99.90
27978;DHT22;15314;49.248;6.968;2023-07-16T03:50:01;15.70;99.90
27978;DHT22;15314;49.248;6.968;2023-07-16T03:51:02;15.70;99.90
27978;DHT22;15314;49.248;6.968;2023-07-16T03:52:03;15.70;99.90
27978;DHT22;15314;49.248;6.968;2023-07-16T03:53:04;15.70;99.90
27978;DHT22;15314;49.248;6.968;2023-07-16T03:54:04;15.70;99.90
27978;DHT22;15314;49.248;6.968;2023-07-16T03:55:05;15.70;99.90
27978;DHT22;15314;49.248;6.968;2023-07-16T03:56:07;15.60;99.90
27978;DHT22;15314;49.248;6.968;2023-07-16T03:57:07;15.70;99.90
27978;DHT22;15314;49.248;6.968;2023-07-16T03:58:08;15.70;99.90
27978;DHT22;15314;49.248;6.968;2023-07-16T03:59:09;15.60;99.90
27978;DHT22;15314;49.248;6.968;2023-07-16T04:00:10;15.60;99.90
27978;DHT22;15314;49.248;6.968;2023-07-16T04:01:10;15.60;99.90
27978;DHT22;15314;49.248;6.968;2023-07-16T04:02:11;15.60;99.90
27978;DHT22;15314;49.248;6.968;2023-07-16T04:03:12;15.60;99.90
27978;DHT22;15314;49.248;6.968;2023-07-16T04:04:12;15.60;99.90
27978;DHT22;15314;49.248;6.968;2023-07-16T04:05:13;15.60;99.90
27978;DHT22;15314;49.248;6.968;2023-07-16T04:06:14;15.60;99.90
27978;DHT22;15314;49.248;6.968;2023-07-16T04:07:15;15.60;99.90
27978;DHT22;15314;49.248;6.968;2023-07-16T04:08:15;15.60;99.90
27978;DHT22;15314;49.248;6.968;2023-07-16T04:09:16;15.60;99.90
27978;DHT22;15314;49.248;6.968;2023-07-16T04:10:17;15.60;99.90
27978;DHT22;15314;49.248;6.968;2023-07-16T04:11:17;15.60;99.90
27978;DHT22;15314;49.248;6.968;2023-07-16T04:12:18;15.60;99.90
27978;DHT22;15314;49.248;6.968;2023-07-16T04:13:19;15.50;99.90
27978;DHT22;15314;49.248;6.968;2023-07-16T04:14:20;15.60;99.90
27978;DHT22;15314;49.248;6.968;2023-07-16T04:15:20;15.60;99.90
27978;DHT22;15314;49.248;6.968;2023-07-16T04:16:21;15.50;99.90
27978;DHT22;15314;49.248;6.968;2023-07-16T04:17:22;15.60;99.90
27978;DHT22;15314;49.248;6.968;2023-07-16T04:18:23;15.50;99.90
27978;DHT22;15314;49.248;6.968;2023-07-16T04:19:24;15.50;99.90
27978;DHT22;15314;49.248;6.968;2023-07-16T04:20:24;15.40;99.90
27978;DHT22;15314;49.248;6.968;2023-07-16T04:21:25;15.50;99.90
27978;DHT22;15314;49.248;6.968;2023-07-16T04:22:26;15.50;99.90
27978;DHT22;15314;49.248;6.968;2023-07-16T04:23:26;15.50;99.90
27978;DHT22;15314;49.248;6.968;2023-07-16T04:24:27;15.50;99.90
27978;DHT22;15314;49.248;6.968;2023-07-16T04:25:28;15.40;99.90
27978;DHT22;15314;49.248;6.968;2023-07-16T04:26:29;15.50;99.90
27978;DHT22;15314;49.248;6.968;2023-07-16T04:27:29;15.50;99.90
27978;DHT22;15314;49.248;6.968;2023-07-16T04:28:30;15.40;99.90
27978;DHT22;15314;49.248;6.968;2023-07-16T04:29:31;15.50;99.90
27978;DHT22;15314;49.248;6.968;2023-07-16T04:30:31;15.50;99.90
27978;DHT22;15314;49.248;6.968;2023-07-16T04:31:32;15.50;99.90
27978;DHT22;15314;49.248;6.968;2023-07-16T04:32:33;15.50;99.90
27978;DHT22;15314;49.248;6.968;2023-07-16T04:33:33;15.50;99.90
27978;DHT22;15314;49.248;6.968;2023-07-16T04:34:34;15.50;99.90
27978;DHT22;15314;49.248;6.968;2023-07-16T04:35:35;15.50;99.90
27978;DHT22;15314;49.248;6.968;2023-07-16T04:36:35;15.50;99.90
27978;DHT22;15314;49.248;6.968;2023-07-16T04:37:36;15.50;99.90
27978;DHT22;15314;49.248;6.968;2023-07-16T04:38:37;15.50;99.90
27978;DHT22;15314;49.248;6.968;2023-07-16T04:39:37;15.50;99.90
27978;DHT22;15314;49.248;6.968;2023-07-16T04:40:38;15.50;99.90
27978;DHT22;15314;49.248;6.968;2023-07-16T04:41:39;15.50;99.90
27978;DHT22;15314;49.248;6.968;2023-07-16T04:42:39;15.60;99.90
27978;DHT22;15314;49.248;6.968;2023-07-16T04:43:40;15.60;99.90
27978;DHT22;15314;49.248;6.968;2023-07-16T04:44:41;15.60;99.90
27978;DHT22;15314;49.248;6.968;2023-07-16T04:45:44;15.70;99.90
27978;DHT22;15314;49.248;6.968;2023-07-16T04:46:47;15.60;99.90
27978;DHT22;15314;49.248;6.968;2023-07-16T04:47:47;15.70;99.90
27978;DHT22;15314;49.248;6.968;2023-07-16T04:48:48;15.70;99.90
27978;DHT22;15314;49.248;6.968;2023-07-16T04:49:49;15.70;99.90
27978;DHT22;15314;49.248;6.968;2023-07-16T04:50:51;15.70;99.90
27978;DHT22;15314;49.248;6.968;2023-07-16T04:51:52;15.70;99.90
27978;DHT22;15314;49.248;6.968;2023-07-16T04:52:53;15.70;99.90
27978;DHT22;15314;49.248;6.968;2023-07-16T04:53:54;15.70;99.90
27978;DHT22;15314;49.248;6.968;2023-07-16T04:54:55;15.70;99.90
27978;DHT22;15314;49.248;6.968;2023-07-16T04:55:56;15.70;99.90
27978;DHT22;15314;49.248;6.968;2023-07-16T04:56:57;15.80;99.90
27978;DHT22;15314;49.248;6.968;2023-07-16T04:57:58;15.80;99.90
27978;DHT22;15314;49.248;6.968;2023-07-16T04:58:58;15.80;99.90
27978;DHT22;15314;49.248;6.968;2023-07-16T04:59:59;15.80;99.90
27978;DHT22;15314;49.248;6.968;2023-07-16T05:00:59;15.90;99.90
27978;DHT22;15314;49.248;6.968;2023-07-16T05:02:04;15.90;99.90
27978;DHT22;15314;49.248;6.968;2023-07-16T05:03:05;15.90;99.90
27978;DHT22;15314;49.248;6.968;2023-07-16T05:04:05;15.90;99.90
27978;DHT22;15314;49.248;6.968;2023-07-16T05:05:08;16.00;99.90
27978;DHT22;15314;49.248;6.968;2023-07-16T05:06:09;16.00;99.90
27978;DHT22;15314;49.248;6.968;2023-07-16T05:07:09;16.00;99.90
27978;DHT22;15314;49.248;6.968;2023-07-16T05:08:10;16.00;99.90
27978;DHT22;15314;49.248;6.968;2023-07-16T05:09:11;16.10;99.90
27978;DHT22;15314;49.248;6.968;2023-07-16T05:10:12;16.10;99.90
27978;DHT22;15314;49.248;6.968;2023-07-16T05:11:12;16.10;99.90
27978;DHT22;15314;49.248;6.968;2023-07-16T05:12:13;16.20;99.90
27978;DHT22;15314;49.248;6.968;2023-07-16T05:13:14;16.10;99.90
27978;DHT22;15314;49.248;6.968;2023-07-16T05:14:15;16.10;99.90
27978;DHT22;15314;49.248;6.968;2023-07-16T05:15:16;16.10;99.90
27978;DHT22;15314;49.248;6.968;2023-07-16T05:16:17;16.10;99.90
27978;DHT22;15314;49.248;6.968;2023-07-16T05:17:17;16.10;99.90
27978;DHT22;15314;49.248;6.968;2023-07-16T05:18:18;16.10;99.90
27978;DHT22;15314;49.248;6.968;2023-07-16T05:19:19;16.20;99.90
27978;DHT22;15314;49.248;6.968;2023-07-16T05:20:20;16.20;99.90
27978;DHT22;15314;49.248;6.968;2023-07-16T05:21:20;16.20;99.90
27978;DHT22;15314;49.248;6.968;2023-07-16T05:22:21;16.10;99.90
27978;DHT22;15314;49.248;6.968;2023-07-16T05:23:22;16.20;99.90
27978;DHT22;15314;49.248;6.968;2023-07-16T05:24:23;16.20;99.90
27978;DHT22;15314;49.248;6.968;2023-07-16T05:25:23;16.20;99.90
27978;DHT22;15314;49.248;6.968;2023-07-16T05:26:24;16.20;99.90
27978;DHT22;15314;49.248;6.968;2023-07-16T05:27:25;16.20;99.90
27978;DHT22;15314;49.248;6.968;2023-07-16T05:28:25;16.20;99.90
27978;DHT22;15314;49.248;6.968;2023-07-16T05:29:26;16.20;99.90
27978;DHT22;15314;49.248;6.968;2023-07-16T05:30:27;16.20;99.90
27978;DHT22;15314;49.248;6.968;2023-07-16T05:31:27;16.20;99.90
27978;DHT22;15314;49.248;6.968;2023-07-16T05:32:28;16.30;99.90
27978;DHT22;15314;49.248;6.968;2023-07-16T05:33:29;16.30;99.90
27978;DHT22;15314;49.248;6.968;2023-07-16T05:34:31;16.40;99.90
27978;DHT22;15314;49.248;6.968;2023-07-16T05:35:32;16.40;99.90
27978;DHT22;15314;49.248;6.968;2023-07-16T05:36:32;16.30;99.90
27978;DHT22;15314;49.248;6.968;2023-07-16T05:37:33;16.30;99.90
27978;DHT22;15314;49.248;6.968;2023-07-16T05:38:34;16.40;99.90
27978;DHT22;15314;49.248;6.968;2023-07-16T05:39:35;16.40;99.90
27978;DHT22;15314;49.248;6.968;2023-07-16T05:40:35;16.40;99.90
27978;DHT22;15314;49.248;6.968;2023-07-16T05:41:36;16.40;99.90
27978;DHT22;15314;49.248;6.968;2023-07-16T05:42:37;16.40;99.90
27978;DHT22;15314;49.248;6.968;2023-07-16T05:43:37;16.40;99.90
27978;DHT22;15314;49.248;6.968;2023-07-16T05:44:38;16.40;99.90
27978;DHT22;15314;49.248;6.968;2023-07-16T05:45:39;16.50;99.90
27978;DHT22;15314;49.248;6.968;2023-07-16T05:46:39;16.50;99.90
27978;DHT22;15314;49.248;6.968;2023-07-16T05:47:40;16.50;99.90
27978;DHT22;15314;49.248;6.968;2023-07-16T05:48:41;16.50;99.90
27978;DHT22;15314;49.248;6.968;2023-07-16T05:49:41;16.50;99.90
27978;DHT22;15314;49.248;6.968;2023-07-16T05:50:44;16.50;99.90
27978;DHT22;15314;49.248;6.968;2023-07-16T05:51:45;16.60;99.90
27978;DHT22;15314;49.248;6.968;2023-07-16T05:52:46;16.60;99.90
27978;DHT22;15314;49.248;6.968;2023-07-16T05:53:48;16.60;99.90
27978;DHT22;15314;49.248;6.968;2023-07-16T05:54:49;16.60;99.90
27978;DHT22;15314;49.248;6.968;2023-07-16T05:55:49;16.70;99.90
27978;DHT22;15314;49.248;6.968;2023-07-16T05:56:52;16.70;99.90
27978;DHT22;15314;49.248;6.968;2023-07-16T05:57:53;16.80;99.90
27978;DHT22;15314;49.248;6.968;2023-07-16T05:58:54;16.80;99.90
27978;DHT22;15314;49.248;6.968;2023-07-16T05:59:54;16.90;99.90
27978;DHT22;15314;49.248;6.968;2023-07-16T06:00:55;17.00;99.90
27978;DHT22;15314;49.248;6.968;2023-07-16T06:01:56;17.10;99.90
27978;DHT22;15314;49.248;6.968;2023-07-16T06:02:58;17.20;99.90
27978;DHT22;15314;49.248;6.968;2023-07-16T06:03:59;17.20;99.90
27978;DHT22;15314;49.248;6.968;2023-07-16T06:04:59;17.10;99.90
27978;DHT22;15314;49.248;6.968;2023-07-16T06:06:00;17.20;99.90
27978;DHT22;15314;49.248;6.968;2023-07-16T06:07:02;17.10;99.90
27978;DHT22;15314;49.248;6.968;2023-07-16T06:08:03;17.10;99.90
27978;DHT22;15314;49.248;6.968;2023-07-16T06:09:04;17.10;99.90
27978;DHT22;15314;49.248;6.968;2023-07-16T06:10:05;17.20;99.90
27978;DHT22;15314;49.248;6.968;2023-07-16T06:11:06;17.30;99.90
27978;DHT22;15314;49.248;6.968;2023-07-16T06:12:06;17.40;99.90
27978;DHT22;15314;49.248;6.968;2023-07-16T06:13:07;17.40;99.90
27978;DHT22;15314;49.248;6.968;2023-07-16T06:14:08;17.40;99.90
27978;DHT22;15314;49.248;6.968;2023-07-16T06:15:09;17.50;99.90
27978;DHT22;15314;49.248;6.968;2023-07-16T06:16:10;17.50;99.90
27978;DHT22;15314;49.248;6.968;2023-07-16T06:17:11;17.60;99.90
27978;DHT22;15314;49.248;6.968;2023-07-16T06:18:11;17.60;99.90
27978;DHT22;15314;49.248;6.968;2023-07-16T06:19:12;17.70;99.90
27978;DHT22;15314;49.248;6.968;2023-07-16T06:20:13;17.60;99.90
27978;DHT22;15314;49.248;6.968;2023-07-16T06:21:13;17.60;99.90
27978;DHT22;15314;49.248;6.968;2023-07-16T06:22:14;17.70;99.90
27978;DHT22;15314;49.248;6.968;2023-07-16T06:23:14;17.70;99.90
27978;DHT22;15314;49.248;6.968;2023-07-16T06:24:17;17.80;99.90
27978;DHT22;15314;49.248;6.968;2023-07-16T06:25:18;17.90;99.90
27978;DHT22;15314;49.248;6.968;2023-07-16T06:26:18;18.00;99.90
27978;DHT22;15314;49.248;6.968;2023-07-16T06:27:19;17.90;99.90
27978;DHT22;15314;49.248;6.968;2023-07-16T06:28:19;18.00;99.90
27978;DHT22;15314;49.248;6.968;2023-07-16T06:29:20;18.10;99.90
27978;DHT22;15314;49.248;6.968;2023-07-16T06:30:22;18.20;99.90
27978;DHT22;15314;49.248;6.968;2023-07-16T06:31:22;18.40;99.90
27978;DHT22;15314;49.248;6.968;2023-07-16T06:32:23;18.60;99.90
27978;DHT22;15314;49.248;6.968;2023-07-16T06:33:24;18.60;99.90
27978;DHT22;15314;49.248;6.968;2023-07-16T06:34:25;18.40;99.90